Time;durP1;ratioP1;P1;durP2;ratioP2;P2;SDS_P1;SDS_P2;PMS_P1;PMS_P2;Temp;Humidity;BMP_temperature;BMP_pressure;BME280_temperature;BME280_humidity;BME280_pressure;Samples;Min_cycle;Max_cycle;Signal;HPM_P1;HPM_P2
2023/09/14 00:00:44;;;;;;;3.47;1.50;;;15.40;99.90;;;;;;5021061;28;20021;-67
2023/09/14 00:03:10;;;;;;;3.70;1.40;;;15.40;99.90;;;;;;5021274;28;20097;-67
2023/09/14 00:05:39;;;;;;;3.38;1.30;;;15.40;99.90;;;;;;5021111;28;20057;-67
2023/09/14 00:08:05;;;;;;;4.22;1.40;;;15.50;99.90;;;;;;5021139;28;20029;-67
2023/09/14 00:10:32;;;;;;;5.75;1.58;;;15.50;99.90;;;;;;5020804;28;20032;-67
2023/09/14 00:12:58;;;;;;;3.63;1.73;;;15.40;99.90;;;;;;5020487;28;20030;-67
2023/09/14 00:15:23;;;;;;;2.70;1.30;;;15.20;99.90;;;;;;5020975;28;20028;-67
2023/09/14 00:17:49;;;;;;;5.35;1.70;;;15.20;99.90;;;;;;5020666;28;20022;-66
2023/09/14 00:20:20;;;;;;;5.22;1.60;;;15.10;99.90;;;;;;5020636;28;20049;-67
2023/09/14 00:22:47;;;;;;;3.15;1.40;;;15.10;99.90;;;;;;5021549;28;20032;-66
2023/09/14 00:25:13;;;;;;;4.47;2.08;;;15.10;99.90;;;;;;5021167;28;20032;-67
2023/09/14 00:27:39;;;;;;;3.33;1.63;;;15.10;99.90;;;;;;5020922;28;20029;-67
2023/09/14 00:30:05;;;;;;;5.68;2.10;;;15.10;99.90;;;;;;5021262;28;20022;-66
2023/09/14 00:32:31;;;;;;;8.55;1.70;;;15.10;99.90;;;;;;5020498;28;20021;-67
2023/09/14 00:34:57;;;;;;;3.15;1.30;;;15.10;99.90;;;;;;5020589;28;20037;-67
2023/09/14 00:37:23;;;;;;;3.72;1.42;;;15.10;99.90;;;;;;5020336;28;20056;-67
2023/09/14 00:39:48;;;;;;;5.25;1.48;;;15.10;99.90;;;;;;5020443;28;20022;-67
2023/09/14 00:42:14;;;;;;;4.93;1.90;;;15.20;99.90;;;;;;5021326;28;20112;-67
2023/09/14 00:44:40;;;;;;;7.95;1.88;;;15.20;99.90;;;;;;5020665;28;20030;-67
2023/09/14 00:47:05;;;;;;;2.97;1.55;;;15.10;99.90;;;;;;5020517;28;20025;-67
2023/09/14 00:49:31;;;;;;;5.57;1.85;;;15.20;99.90;;;;;;5020705;28;20048;-67
2023/09/14 00:51:57;;;;;;;2.90;1.48;;;15.20;99.90;;;;;;5020053;28;20017;-67
2023/09/14 00:54:23;;;;;;;3.75;1.40;;;15.20;99.90;;;;;;5019953;28;20021;-67
2023/09/14 00:56:48;;;;;;;2.60;1.10;;;15.30;99.90;;;;;;5020794;28;20029;-67
2023/09/14 00:59:14;;;;;;;3.80;1.73;;;15.30;99.90;;;;;;5020329;28;20028;-67
2023/09/14 01:01:39;;;;;;;3.33;1.40;;;15.20;99.90;;;;;;5021085;28;20029;-67
2023/09/14 01:04:05;;;;;;;2.75;1.60;;;14.80;99.90;;;;;;5019928;28;20029;-67
2023/09/14 01:06:32;;;;;;;5.47;1.80;;;14.90;99.90;;;;;;5020533;28;20021;-67
2023/09/14 01:08:58;;;;;;;5.80;1.77;;;14.90;99.90;;;;;;5020487;28;20029;-67
2023/09/14 01:11:24;;;;;;;3.33;1.33;;;14.80;99.90;;;;;;5020064;28;20070;-66
2023/09/14 01:14:00;;;;;;;3.95;1.50;;;14.80;99.90;;;;;;5020108;28;20021;-67
2023/09/14 01:16:51;;;;;;;4.28;1.83;;;14.80;99.90;;;;;;5020317;28;20021;-67
2023/09/14 01:19:38;;;;;;;2.55;1.50;;;14.80;99.90;;;;;;5019898;28;20029;-67
2023/09/14 01:22:22;;;;;;;4.60;1.52;;;14.90;99.90;;;;;;5019993;28;20029;-67
2023/09/14 01:24:52;;;;;;;3.65;1.42;;;14.90;99.90;;;;;;5019490;28;20029;-67
2023/09/14 01:27:18;;;;;;;3.10;1.60;;;15.00;99.90;;;;;;5019985;28;20024;-67
2023/09/14 01:29:43;;;;;;;3.42;1.58;;;15.00;99.90;;;;;;5020288;28;20074;-67
2023/09/14 01:32:09;;;;;;;3.72;1.70;;;15.00;99.90;;;;;;5019944;28;20120;-67
2023/09/14 01:34:35;;;;;;;5.30;1.45;;;15.00;99.90;;;;;;5019601;28;20037;-67
2023/09/14 01:37:04;;;;;;;3.50;1.50;;;14.90;99.90;;;;;;5020089;28;20089;-67
2023/09/14 01:39:31;;;;;;;7.28;1.42;;;14.60;99.90;;;;;;5019850;28;20026;-67
2023/09/14 01:41:58;;;;;;;2.85;1.00;;;14.20;99.90;;;;;;5019419;28;20064;-67
2023/09/14 01:44:27;;;;;;;3.38;1.40;;;14.10;99.90;;;;;;5019816;28;20029;-67
2023/09/14 01:46:56;;;;;;;6.97;1.40;;;14.30;99.90;;;;;;5020096;28;20017;-67
2023/09/14 01:49:22;;;;;;;3.17;1.50;;;14.50;99.90;;;;;;5020004;28;20022;-67
2023/09/14 01:51:48;;;;;;;4.78;1.35;;;14.60;99.90;;;;;;5019511;28;20025;-67
2023/09/14 01:54:13;;;;;;;4.18;2.00;;;14.60;99.90;;;;;;5020182;28;20021;-67
2023/09/14 01:56:40;;;;;;;3.40;1.52;;;14.60;99.90;;;;;;5020541;28;20024;-67
2023/09/14 01:59:06;;;;;;;5.22;1.67;;;14.60;99.90;;;;;;5019262;28;20018;-67
2023/09/14 02:01:31;;;;;;;5.55;1.10;;;14.50;99.90;;;;;;5020181;28;20033;-67
2023/09/14 02:03:57;;;;;;;3.97;1.33;;;14.50;99.90;;;;;;5019830;28;20025;-67
2023/09/14 02:06:22;;;;;;;2.55;1.30;;;14.50;99.90;;;;;;5019680;28;20052;-67
2023/09/14 02:08:48;;;;;;;3.45;1.50;;;14.50;99.90;;;;;;5019775;28;20029;-67
2023/09/14 02:11:13;;;;;;;2.03;1.10;;;14.50;99.90;;;;;;5019110;28;20097;-67
2023/09/14 02:13:40;;;;;;;6.25;1.40;;;14.50;99.90;;;;;;5019493;28;20022;-67
2023/09/14 02:16:06;;;;;;;2.45;1.13;;;14.40;99.90;;;;;;5019180;28;20171;-67
2023/09/14 02:18:31;;;;;;;10.70;1.65;;;14.30;99.90;;;;;;5019807;28;20076;-67
2023/09/14 02:20:57;;;;;;;4.97;1.33;;;14.30;99.90;;;;;;5020068;28;20045;-67
2023/09/14 02:23:22;;;;;;;5.38;1.40;;;14.20;99.90;;;;;;5019067;28;20029;-67
2023/09/14 02:25:49;;;;;;;1.58;1.05;;;14.30;99.90;;;;;;5019475;28;20064;-67
2023/09/14 02:28:15;;;;;;;5.63;1.60;;;14.40;99.90;;;;;;5019456;28;20037;-67
2023/09/14 02:30:42;;;;;;;10.13;1.50;;;14.30;99.90;;;;;;5019064;28;20029;-67
2023/09/14 02:33:08;;;;;;;3.15;1.63;;;14.30;99.90;;;;;;5019436;28;20079;-67
2023/09/14 02:35:38;;;;;;;4.20;1.98;;;14.30;99.90;;;;;;5020913;28;20034;-67
2023/09/14 02:38:04;;;;;;;7.18;1.40;;;14.10;99.90;;;;;;5022836;28;20059;-67
2023/09/14 02:40:30;;;;;;;4.20;1.50;;;14.10;99.90;;;;;;5022943;28;20124;-67
2023/09/14 02:42:56;;;;;;;2.25;1.50;;;14.10;99.90;;;;;;5022923;28;20033;-67
2023/09/14 02:45:21;;;;;;;2.72;1.15;;;14.20;99.90;;;;;;5023056;28;20025;-67
2023/09/14 02:47:47;;;;;;;2.83;1.40;;;14.30;99.90;;;;;;5022286;28;20164;-67
2023/09/14 02:50:12;;;;;;;3.25;1.67;;;14.40;99.90;;;;;;5023059;28;20032;-67
2023/09/14 02:52:38;;;;;;;6.43;2.00;;;14.40;99.90;;;;;;5022324;28;20037;-67
2023/09/14 02:55:04;;;;;;;3.42;1.80;;;14.30;99.90;;;;;;5022635;28;20024;-67
2023/09/14 02:57:30;;;;;;;3.65;1.50;;;14.30;99.90;;;;;;5022214;28;20032;-67
2023/09/14 02:59:55;;;;;;;4.10;1.60;;;14.40;99.90;;;;;;5022551;28;20025;-67
2023/09/14 03:02:22;;;;;;;4.00;1.60;;;14.40;99.90;;;;;;5022605;28;20057;-67
2023/09/14 03:04:48;;;;;;;4.72;1.65;;;14.30;99.90;;;;;;5022232;28;20067;-67
2023/09/14 03:07:15;;;;;;;4.60;1.50;;;14.20;99.90;;;;;;5022063;28;20029;-67
2023/09/14 03:09:40;;;;;;;5.93;1.58;;;14.10;99.90;;;;;;5022030;28;20057;-67
2023/09/14 03:12:06;;;;;;;3.40;2.05;;;14.10;99.90;;;;;;5022782;28;20026;-67
2023/09/14 03:14:32;;;;;;;3.05;1.48;;;14.10;99.90;;;;;;5021953;28;20033;-67
2023/09/14 03:16:58;;;;;;;5.72;1.60;;;14.10;99.90;;;;;;5021892;28;20026;-67
2023/09/14 03:19:24;;;;;;;3.28;1.88;;;14.10;99.90;;;;;;5022685;28;20036;-66
2023/09/14 03:21:50;;;;;;;3.72;1.95;;;14.00;99.90;;;;;;5022606;28;20026;-67
2023/09/14 03:24:15;;;;;;;7.50;2.47;;;13.80;99.90;;;;;;5022238;28;20022;-67
2023/09/14 03:26:41;;;;;;;4.97;2.38;;;13.80;99.90;;;;;;5022452;28;20029;-67
2023/09/14 03:29:06;;;;;;;5.60;2.00;;;13.90;99.90;;;;;;5022639;28;20072;-67
2023/09/14 03:31:32;;;;;;;6.43;1.23;;;13.90;99.90;;;;;;5021583;28;20034;-67
2023/09/14 03:33:58;;;;;;;3.42;1.65;;;14.00;99.90;;;;;;5021605;28;20048;-67
2023/09/14 03:36:24;;;;;;;5.68;2.30;;;14.00;99.90;;;;;;5022672;28;20022;-67
2023/09/14 03:38:50;;;;;;;4.55;2.60;;;14.00;99.90;;;;;;5021470;28;20018;-67
2023/09/14 03:41:15;;;;;;;3.20;2.20;;;14.00;99.90;;;;;;5022531;28;20052;-67
2023/09/14 03:43:41;;;;;;;5.57;2.72;;;14.10;99.90;;;;;;5022383;28;20087;-67
2023/09/14 03:46:08;;;;;;;3.13;2.50;;;14.20;99.90;;;;;;5020853;28;20032;-67
2023/09/14 03:48:33;;;;;;;5.75;3.00;;;14.20;99.90;;;;;;5022165;28;20021;-67
2023/09/14 03:51:00;;;;;;;6.00;3.78;;;14.10;99.90;;;;;;5021397;28;20029;-67
2023/09/14 03:53:26;;;;;;;6.85;3.35;;;14.10;99.90;;;;;;5021331;28;20026;-67
2023/09/14 03:55:53;;;;;;;5.63;3.50;;;14.10;99.90;;;;;;5021887;28;20029;-67
2023/09/14 03:58:19;;;;;;;9.90;3.92;;;14.00;99.90;;;;;;5021240;28;20048;-67
2023/09/14 04:00:44;;;;;;;7.70;4.03;;;13.90;99.90;;;;;;5021023;28;20115;-67
2023/09/14 04:03:10;;;;;;;11.75;4.05;;;13.90;99.90;;;;;;5021657;28;20025;-67
2023/09/14 04:05:36;;;;;;;10.70;3.85;;;13.80;99.90;;;;;;5020951;28;20026;-67
2023/09/14 04:08:02;;;;;;;10.45;4.22;;;13.70;99.90;;;;;;5021276;28;20022;-67
2023/09/14 04:10:27;;;;;;;9.15;4.05;;;13.70;99.90;;;;;;5021539;28;20033;-67
2023/09/14 04:13:28;;;;;;;6.63;3.85;;;13.80;99.90;;;;;;5021093;28;20021;-67
2023/09/14 04:15:54;;;;;;;8.07;3.65;;;13.80;99.90;;;;;;5020729;28;20113;-67
2023/09/14 04:18:20;;;;;;;5.72;3.60;;;13.70;99.90;;;;;;5020814;28;20033;-67
2023/09/14 04:20:47;;;;;;;6.90;3.50;;;13.60;99.90;;;;;;5020694;28;20025;-67
2023/09/14 04:23:13;;;;;;;6.40;3.40;;;13.70;99.90;;;;;;5021349;28;20030;-67
2023/09/14 04:25:44;;;;;;;11.98;3.72;;;13.90;99.90;;;;;;5020724;28;20052;-67
2023/09/14 04:28:13;;;;;;;6.55;3.25;;;13.80;99.90;;;;;;5020544;28;20033;-67
2023/09/14 04:30:51;;;;;;;6.38;3.13;;;13.80;99.90;;;;;;5020473;28;20040;-67
2023/09/14 04:33:17;;;;;;;6.68;3.40;;;13.80;99.90;;;;;;5020413;28;20026;-67
2023/09/14 04:35:44;;;;;;;5.85;2.88;;;13.80;99.90;;;;;;5020295;28;20029;-67
2023/09/14 04:38:09;;;;;;;5.13;3.10;;;13.70;99.90;;;;;;5020803;28;20076;-67
2023/09/14 04:40:43;;;;;;;2.80;2.33;;;13.80;99.90;;;;;;5020674;28;20026;-67
2023/09/14 04:43:09;;;;;;;2.75;1.98;;;13.80;99.90;;;;;;5020592;28;20037;-67
2023/09/14 04:45:35;;;;;;;4.88;2.65;;;13.80;99.90;;;;;;5020512;28;20022;-67
2023/09/14 04:48:01;;;;;;;2.75;2.13;;;13.90;99.90;;;;;;5020460;28;20082;-67
2023/09/14 04:50:27;;;;;;;5.25;2.95;;;13.90;99.90;;;;;;5020453;28;20029;-67
2023/09/14 04:52:53;;;;;;;2.70;2.05;;;13.80;99.90;;;;;;5021095;28;20026;-67
2023/09/14 04:55:18;;;;;;;4.35;2.35;;;13.90;99.90;;;;;;5020616;28;20032;-67
2023/09/14 04:57:44;;;;;;;3.03;2.33;;;13.80;99.90;;;;;;5020343;28;20021;-67
2023/09/14 05:00:10;;;;;;;4.32;2.83;;;13.80;99.90;;;;;;5020420;28;20079;-67
2023/09/14 05:02:37;;;;;;;6.32;2.30;;;13.70;99.90;;;;;;5020034;28;20033;-67
2023/09/14 05:05:03;;;;;;;8.88;2.28;;;13.60;99.90;;;;;;5019868;28;20029;-67
2023/09/14 05:07:29;;;;;;;4.55;3.00;;;13.60;99.90;;;;;;5020648;28;20029;-67
2023/09/14 05:09:54;;;;;;;11.05;4.10;;;13.60;99.90;;;;;;5020206;28;20032;-67
2023/09/14 05:12:20;;;;;;;18.05;3.70;;;13.50;99.90;;;;;;5019909;28;20017;-67
2023/09/14 05:14:45;;;;;;;14.10;3.83;;;13.50;99.90;;;;;;5020165;28;20025;-67
2023/09/14 05:17:11;;;;;;;27.60;3.60;;;13.50;99.90;;;;;;5020542;28;20026;-67
2023/09/14 05:19:41;;;;;;;15.45;3.08;;;13.40;99.90;;;;;;5020122;28;20028;-67
2023/09/14 05:22:07;;;;;;;23.63;4.25;;;13.40;99.90;;;;;;5020504;28;20114;-67
2023/09/14 05:24:32;;;;;;;10.60;3.50;;;13.40;99.90;;;;;;5019688;28;20025;-67
2023/09/14 05:26:59;;;;;;;20.63;3.88;;;13.40;99.90;;;;;;5019806;28;20030;-67
2023/09/14 05:29:25;;;;;;;26.45;3.63;;;13.40;99.90;;;;;;5019856;28;20118;-67
2023/09/14 05:31:50;;;;;;;42.33;5.18;;;13.30;99.90;;;;;;5019975;28;20021;-70
2023/09/14 05:34:16;;;;;;;13.48;2.67;;;13.40;99.90;;;;;;5019495;28;20040;-70
2023/09/14 05:36:41;;;;;;;7.32;3.80;;;13.40;99.90;;;;;;5042694;22;20069;-75
2023/09/14 05:39:08;;;;;;;11.13;3.75;;;13.30;99.90;;;;;;5019933;28;20018;-75
2023/09/14 05:41:34;;;;;;;16.67;3.65;;;13.30;99.90;;;;;;5036956;28;20023;-75
2023/09/14 05:44:00;;;;;;;15.80;4.65;;;13.40;99.90;;;;;;5037100;28;20036;-75
2023/09/14 05:46:25;;;;;;;21.92;3.97;;;13.60;99.90;;;;;;5019732;28;20032;-75
2023/09/14 05:48:51;;;;;;;19.35;4.43;;;13.50;99.90;;;;;;5019912;28;20063;-75
2023/09/14 05:51:16;;;;;;;10.00;3.83;;;13.50;99.90;;;;;;5019847;28;20116;-75
2023/09/14 05:53:42;;;;;;;8.88;3.95;;;13.60;99.90;;;;;;5019852;28;20020;-76
2023/09/14 05:56:07;;;;;;;7.60;3.60;;;13.70;99.90;;;;;;5019434;28;20022;-76
2023/09/14 05:58:33;;;;;;;7.90;3.90;;;13.70;99.90;;;;;;5037136;28;20032;-75
2023/09/14 06:01:00;;;;;;;7.18;4.35;;;13.90;99.90;;;;;;5036822;28;20034;-75
2023/09/14 06:03:26;;;;;;;9.55;3.20;;;13.90;99.90;;;;;;5019455;28;20075;-75
2023/09/14 06:05:51;;;;;;;8.98;3.75;;;13.90;99.90;;;;;;5036724;28;20030;-75
2023/09/14 06:08:17;;;;;;;11.85;3.30;;;13.80;99.90;;;;;;5019403;28;20029;-75
2023/09/14 06:10:43;;;;;;;4.60;2.63;;;13.70;99.90;;;;;;5021807;28;20101;-75
2023/09/14 06:13:08;;;;;;;11.30;3.60;;;13.80;99.90;;;;;;5041005;28;20053;-76
2023/09/14 06:15:34;;;;;;;7.75;3.20;;;13.90;99.90;;;;;;5040420;28;20032;-75
2023/09/14 06:18:00;;;;;;;7.78;3.80;;;13.70;99.90;;;;;;5023123;28;20033;-76
2023/09/14 06:20:25;;;;;;;5.95;2.95;;;13.70;99.90;;;;;;5023277;28;20033;-76
2023/09/14 06:22:51;;;;;;;4.85;2.78;;;13.80;99.90;;;;;;5022931;28;20021;-75
2023/09/14 06:25:16;;;;;;;8.85;3.50;;;13.90;99.90;;;;;;5040384;28;20025;-75
2023/09/14 06:27:44;;;;;;;6.53;3.38;;;13.90;99.90;;;;;;5040470;28;20060;-76
2023/09/14 06:30:10;;;;;;;11.20;4.35;;;13.80;99.90;;;;;;5040224;28;20022;-75
2023/09/14 06:32:35;;;;;;;9.57;4.15;;;13.70;99.90;;;;;;5022856;28;20089;-76
2023/09/14 06:35:01;;;;;;;9.95;4.50;;;13.70;99.90;;;;;;5039935;28;20026;-75
2023/09/14 06:37:26;;;;;;;25.38;5.20;;;13.80;99.90;;;;;;5040650;28;20026;-74
2023/09/14 06:39:53;;;;;;;6.35;3.90;;;13.80;99.90;;;;;;5022584;28;20060;-74
2023/09/14 06:42:18;;;;;;;9.90;4.38;;;13.80;99.90;;;;;;5040193;28;20025;-75
2023/09/14 06:44:44;;;;;;;10.68;3.70;;;13.90;99.90;;;;;;5023309;28;20022;-74
2023/09/14 06:47:09;;;;;;;11.98;4.88;;;13.90;99.90;;;;;;5022617;28;20028;-73
2023/09/14 06:49:35;;;;;;;9.75;4.65;;;14.00;99.90;;;;;;5022399;28;20021;-73
2023/09/14 06:52:00;;;;;;;9.63;4.45;;;13.80;99.90;;;;;;5022375;28;20045;-74
2023/09/14 06:54:26;;;;;;;12.02;4.97;;;13.90;99.90;;;;;;5022477;28;20018;-74
2023/09/14 06:56:51;;;;;;;11.43;4.43;;;13.90;99.90;;;;;;5022274;28;20017;-75
2023/09/14 06:59:17;;;;;;;15.43;5.70;;;13.90;99.90;;;;;;5022596;28;20013;-74
2023/09/14 07:01:42;;;;;;;7.60;3.90;;;13.90;99.90;;;;;;5022662;28;20060;-74
2023/09/14 07:04:08;;;;;;;11.00;4.40;;;13.80;99.90;;;;;;5022251;28;20036;-74
2023/09/14 07:06:34;;;;;;;9.88;5.00;;;13.80;99.90;;;;;;5022448;28;20028;-76
2023/09/14 07:08:59;;;;;;;6.03;3.92;;;14.10;99.90;;;;;;5022734;28;20032;-76
2023/09/14 07:11:25;;;;;;;8.02;3.20;;;14.10;99.90;;;;;;5021932;28;20055;-76
2023/09/14 07:13:51;;;;;;;7.50;3.95;;;14.30;99.90;;;;;;5022002;28;20018;-76
2023/09/14 07:16:18;;;;;;;7.15;4.10;;;14.40;99.90;;;;;;5022274;28;20029;-76
2023/09/14 07:18:44;;;;;;;9.77;4.03;;;14.50;99.90;;;;;;5022213;28;20087;-76
2023/09/14 07:21:09;;;;;;;6.63;3.83;;;14.70;99.90;;;;;;5038278;28;20108;-75
2023/09/14 07:23:35;;;;;;;7.03;4.05;;;14.50;99.90;;;;;;5021757;28;20029;-75
2023/09/14 07:26:04;;;;;;;6.60;3.58;;;14.60;99.90;;;;;;5022761;28;20036;-76
2023/09/14 07:28:29;;;;;;;7.50;2.97;;;14.80;99.90;;;;;;5039257;28;20024;-75
2023/09/14 07:30:55;;;;;;;7.05;2.90;;;14.80;99.90;;;;;;5022691;28;20029;-75
2023/09/14 07:33:21;;;;;;;6.30;3.47;;;14.70;99.90;;;;;;5021976;28;20044;-75
2023/09/14 07:35:47;;;;;;;5.18;3.10;;;14.40;99.90;;;;;;5021626;28;20117;-76
2023/09/14 07:38:13;;;;;;;6.80;3.22;;;14.60;99.90;;;;;;5021584;28;20057;-75
2023/09/14 07:40:39;;;;;;;6.43;3.30;;;14.80;99.90;;;;;;5039194;28;20032;-76
2023/09/14 07:43:05;;;;;;;7.47;3.88;;;15.10;99.90;;;;;;5021959;28;20030;-76
2023/09/14 07:45:33;;;;;;;5.80;3.53;;;15.30;99.90;;;;;;5038802;28;20104;-75
2023/09/14 07:48:01;;;;;;;7.85;3.13;;;15.50;99.90;;;;;;5021331;28;20032;-76
2023/09/14 07:50:26;;;;;;;5.78;3.25;;;15.70;99.90;;;;;;5038646;28;20029;-76
2023/09/14 07:52:52;;;;;;;6.35;3.45;;;15.70;99.90;;;;;;5021185;28;20019;-76
2023/09/14 07:55:17;;;;;;;6.20;2.72;;;15.60;99.90;;;;;;5021283;28;20026;-76
2023/09/14 07:57:43;;;;;;;6.90;2.63;;;15.40;99.90;;;;;;5038783;28;20028;-76
2023/09/14 08:00:09;;;;;;;4.93;2.42;;;15.60;99.90;;;;;;5038964;28;20123;-76
2023/09/14 08:02:34;;;;;;;4.65;2.38;;;15.70;99.90;;;;;;5038756;28;20032;-76
2023/09/14 08:05:00;;;;;;;5.40;2.55;;;15.80;99.90;;;;;;5022145;28;20117;-76
2023/09/14 08:07:27;;;;;;;10.68;2.47;;;15.80;99.90;;;;;;5021518;28;20025;-76
2023/09/14 08:09:52;;;;;;;6.30;2.78;;;15.90;99.90;;;;;;5038250;28;20021;-75
2023/09/14 08:12:18;;;;;;;5.75;2.45;;;15.90;99.90;;;;;;5038358;28;20020;-76
2023/09/14 08:14:43;;;;;;;4.90;2.97;;;15.90;99.90;;;;;;5038392;28;20017;-75
2023/09/14 08:17:09;;;;;;;7.50;2.38;;;16.00;99.90;;;;;;5038478;28;20056;-76
2023/09/14 08:19:35;;;;;;;7.55;2.42;;;16.10;99.90;;;;;;5020716;28;20090;-75
2023/09/14 08:22:00;;;;;;;3.78;2.13;;;15.90;99.90;;;;;;5020863;28;20033;-76
2023/09/14 08:24:26;;;;;;;11.07;2.45;;;16.10;99.90;;;;;;5021046;28;20021;-76
2023/09/14 08:26:51;;;;;;;7.57;2.35;;;16.20;99.90;;;;;;5021001;28;20021;-76
2023/09/14 08:29:17;;;;;;;7.45;2.08;;;16.40;99.90;;;;;;5020720;28;20032;-76
2023/09/14 08:31:42;;;;;;;4.47;1.90;;;16.30;99.90;;;;;;5038229;28;20097;-76
2023/09/14 08:34:08;;;;;;;3.85;2.10;;;16.40;99.90;;;;;;5037799;28;20018;-76
2023/09/14 08:36:34;;;;;;;5.25;1.88;;;16.50;99.90;;;;;;5037650;28;20041;-76
2023/09/14 08:38:59;;;;;;;6.18;1.98;;;16.40;99.90;;;;;;5037796;28;20055;-76
2023/09/14 08:41:40;;;;;;;5.93;2.05;;;16.70;99.90;;;;;;5020496;28;20116;-76
2023/09/14 08:44:07;;;;;;;6.03;2.08;;;16.80;99.90;;;;;;5037834;28;20048;-76
2023/09/14 08:46:34;;;;;;;8.77;2.22;;;16.70;99.90;;;;;;5037966;28;20102;-76
2023/09/14 08:49:01;;;;;;;6.25;2.45;;;16.90;99.90;;;;;;5038229;28;20025;-71
2023/09/14 08:51:31;;;;;;;6.65;2.00;;;16.80;99.90;;;;;;5037909;28;20029;-71
2023/09/14 08:53:58;;;;;;;6.40;1.77;;;17.00;99.90;;;;;;5037557;28;20026;-71
2023/09/14 08:56:25;;;;;;;7.22;1.70;;;17.10;99.90;;;;;;5037768;28;20032;-71
2023/09/14 08:58:52;;;;;;;7.00;1.50;;;17.10;99.90;;;;;;5020211;28;20018;-71
2023/09/14 09:01:18;;;;;;;4.93;1.70;;;17.30;99.90;;;;;;5020847;28;20030;-71
2023/09/14 09:03:44;;;;;;;6.72;1.30;;;17.40;99.90;;;;;;5037388;28;20081;-71
2023/09/14 09:06:10;;;;;;;7.00;1.40;;;17.40;99.90;;;;;;5019925;28;20029;-71
2023/09/14 09:08:37;;;;;;;8.20;1.92;;;17.50;99.90;;;;;;5037288;28;20096;-71
2023/09/14 09:11:03;;;;;;;10.95;2.15;;;17.60;99.90;;;;;;5019907;28;20025;-71
2023/09/14 09:13:40;;;;;;;11.15;2.70;;;17.70;99.90;;;;;;5019962;28;20036;-71
2023/09/14 09:16:06;;;;;;;7.78;2.20;;;17.70;99.90;;;;;;5037274;28;20022;-70
2023/09/14 09:18:35;;;;;;;11.13;2.88;;;17.80;99.90;;;;;;5019919;28;20018;-70
2023/09/14 09:21:05;;;;;;;7.75;2.03;;;17.70;99.90;;;;;;5037153;28;20029;-70
2023/09/14 09:23:32;;;;;;;5.97;1.95;;;17.80;99.90;;;;;;5037035;28;20022;-70
2023/09/14 09:25:59;;;;;;;6.10;1.52;;;18.00;99.90;;;;;;5019831;28;20029;-71
2023/09/14 09:28:31;;;;;;;13.93;1.92;;;18.00;99.90;;;;;;5037009;28;20029;-71
2023/09/14 09:30:57;;;;;;;7.32;1.50;;;18.10;99.90;;;;;;5037359;28;20021;-71
2023/09/14 09:33:33;;;;;;;5.82;1.52;;;18.10;99.90;;;;;;5020334;28;20029;-71
2023/09/14 09:36:00;;;;;;;7.43;1.52;;;18.20;99.90;;;;;;5037127;28;20033;-71
2023/09/14 09:38:28;;;;;;;5.80;1.70;;;18.30;99.90;;;;;;5037032;28;20049;-71
2023/09/14 09:40:54;;;;;;;5.80;1.33;;;18.30;99.90;;;;;;5037447;28;20026;-71
2023/09/14 09:43:19;;;;;;;6.03;1.70;;;18.40;99.90;;;;;;5037011;28;20022;-71
2023/09/14 09:45:47;;;;;;;7.75;1.90;;;18.50;99.90;;;;;;5039399;28;20021;-71
2023/09/14 09:48:13;;;;;;;10.32;1.73;;;18.70;99.90;;;;;;5023883;28;20029;-71
2023/09/14 09:50:39;;;;;;;4.38;2.15;;;18.70;99.90;;;;;;5041216;28;20072;-71
2023/09/14 09:53:14;;;;;;;5.15;1.50;;;18.70;99.90;;;;;;5024039;28;20049;-71
2023/09/14 09:55:39;;;;;;;5.70;1.38;;;19.00;99.90;;;;;;5023377;28;20025;-71
2023/09/14 09:58:06;;;;;;;6.20;1.23;;;19.10;99.90;;;;;;5023641;28;20018;-71
2023/09/14 10:00:36;;;;;;;5.70;1.33;;;19.10;99.90;;;;;;5023401;28;20026;-71
2023/09/14 10:03:03;;;;;;;4.72;1.88;;;19.30;99.90;;;;;;5023376;28;20111;-71
2023/09/14 10:05:42;;;;;;;7.47;2.22;;;19.20;99.90;;;;;;5040528;28;20032;-71
2023/09/14 10:08:27;;;;;;;10.30;2.53;;;19.30;99.90;;;;;;5040738;28;20021;-71
2023/09/14 10:10:53;;;;;;;9.35;1.77;;;19.50;99.90;;;;;;5040623;28;20026;-71
2023/09/14 10:13:23;;;;;;;5.13;1.55;;;19.60;99.90;;;;;;5040831;28;20025;-71
2023/09/14 10:15:54;;;;;;;9.07;2.00;;;19.80;99.90;;;;;;5040777;28;20026;-71
2023/09/14 10:18:25;;;;;;;8.05;1.50;;;19.90;99.90;;;;;;5040561;28;20052;-71
2023/09/14 10:20:52;;;;;;;4.82;1.50;;;20.10;99.90;;;;;;5040534;28;20056;-71
2023/09/14 10:23:19;;;;;;;5.47;1.90;;;20.40;99.90;;;;;;5023699;28;20057;-71
2023/09/14 10:25:50;;;;;;;4.97;1.50;;;20.40;99.90;;;;;;5040584;28;20034;-71
2023/09/14 10:28:19;;;;;;;8.23;1.30;;;20.70;99.90;;;;;;5022762;28;20029;-71
2023/09/14 10:30:45;;;;;;;7.18;1.77;;;20.70;99.90;;;;;;5040449;28;20033;-70
2023/09/14 10:33:11;;;;;;;7.32;1.52;;;20.70;99.90;;;;;;5040448;28;20028;-70
2023/09/14 10:35:40;;;;;;;6.32;1.50;;;20.70;99.90;;;;;;5022900;28;20073;-71
2023/09/14 10:38:09;;;;;;;4.22;1.60;;;20.90;99.90;;;;;;5022597;28;20022;-70
2023/09/14 10:40:38;;;;;;;4.03;2.15;;;21.20;99.90;;;;;;5023002;28;20025;-71
2023/09/14 10:43:05;;;;;;;2.95;1.70;;;21.20;99.90;;;;;;5022630;28;20121;-71
2023/09/14 10:48:22;;;;;;;7.25;1.55;;;20.80;99.90;;;;;;5040658;28;20040;-71
2023/09/14 10:50:51;;;;;;;6.35;2.00;;;20.50;99.90;;;;;;5039691;28;20022;-71
2023/09/14 10:53:16;;;;;;;5.95;1.20;;;20.20;99.90;;;;;;5022770;28;20052;-71
2023/09/14 10:55:42;;;;;;;3.53;1.30;;;20.00;99.90;;;;;;5039221;28;20021;-70
2023/09/14 10:58:12;;;;;;;8.93;1.58;;;20.10;99.90;;;;;;5022366;28;20024;-70
2023/09/14 11:00:42;;;;;;;3.33;1.02;;;20.10;99.90;;;;;;5022552;28;20025;-70
2023/09/14 11:03:09;;;;;;;3.30;1.00;;;20.10;99.90;;;;;;5039793;28;20025;-71
2023/09/14 11:05:47;;;;;;;5.00;1.45;;;20.30;99.90;;;;;;5039601;28;20021;-71
2023/09/14 11:08:14;;;;;;;5.90;1.38;;;20.20;99.90;;;;;;5039545;28;20048;-71
2023/09/14 11:11:00;;;;;;;3.00;1.08;;;20.10;99.90;;;;;;5039426;28;20083;-71
2023/09/14 11:13:28;;;;;;;2.78;1.13;;;20.30;99.90;;;;;;5039616;28;20017;-71
2023/09/14 11:15:57;;;;;;;2.20;1.10;;;20.70;99.90;;;;;;5039691;28;20026;-71
2023/09/14 11:18:44;;;;;;;2.85;1.42;;;20.70;99.90;;;;;;5039684;28;20028;-70
2023/09/14 11:21:45;;;;;;;5.30;1.85;;;20.40;99.90;;;;;;5022203;28;20033;-70
2023/09/14 11:24:12;;;;;;;3.40;1.02;;;20.20;99.90;;;;;;4978851;28;20030;-70
2023/09/14 11:26:44;;;;;;;3.22;1.35;;;20.10;99.90;;;;;;4979121;28;20062;-70
2023/09/14 11:29:10;;;;;;;2.78;1.05;;;20.30;99.90;;;;;;4979144;28;20034;-70
2023/09/14 11:31:35;;;;;;;5.22;1.67;;;20.70;99.90;;;;;;4978580;28;20043;-71
2023/09/14 11:34:07;;;;;;;3.55;1.00;;;21.20;99.90;;;;;;4978604;28;20027;-71
2023/09/14 11:36:33;;;;;;;;;;;21.30;99.90;;;;;;5014242;22;20037;-68
2023/09/14 11:39:07;;;;;;;4.38;1.10;;;21.50;99.90;;;;;;5021750;28;19912;-68
2023/09/14 11:44:53;;;;;;;3.83;1.13;;;21.80;99.90;;;;;;5039337;28;20052;-68
2023/09/14 11:47:19;;;;;;;3.33;1.40;;;22.30;99.90;;;;;;5038698;28;20026;-68
2023/09/14 11:49:47;;;;;;;4.70;1.30;;;22.90;99.90;;;;;;5021308;28;20032;-68
2023/09/14 11:52:18;;;;;;;3.90;1.48;;;22.90;99.90;;;;;;5039018;28;20054;-68
2023/09/14 11:54:47;;;;;;;2.20;0.88;;;23.10;99.90;;;;;;5038642;28;20036;-68
2023/09/14 11:57:14;;;;;;;3.50;1.75;;;23.50;99.90;;;;;;5021105;28;20029;-67
2023/09/14 11:59:39;;;;;;;2.40;1.10;;;23.50;99.90;;;;;;5038838;28;20099;-68
2023/09/14 12:02:05;;;;;;;6.05;1.40;;;23.70;99.90;;;;;;5021194;28;20025;-68
2023/09/14 12:04:31;;;;;;;3.40;1.38;;;24.20;99.90;;;;;;5038656;28;20029;-68
2023/09/14 12:06:58;;;;;;;2.70;1.10;;;24.30;99.90;;;;;;5020801;28;20026;-68
2023/09/14 12:09:39;;;;;;;2.35;1.17;;;24.60;99.90;;;;;;5020714;28;20025;-68
2023/09/14 12:12:05;;;;;;;3.92;1.38;;;23.90;99.90;;;;;;5038463;28;20026;-67
2023/09/14 12:14:38;;;;;;;2.47;1.30;;;23.80;99.90;;;;;;5021212;28;20045;-67
2023/09/14 12:17:18;;;;;;;9.20;1.38;;;23.40;99.90;;;;;;5020889;28;20017;-67
2023/09/14 12:19:45;;;;;;;5.47;1.65;;;23.80;99.90;;;;;;5021657;28;20021;-67
2023/09/14 12:22:11;;;;;;;4.72;1.33;;;24.30;99.90;;;;;;5038452;28;20026;-67
2023/09/14 12:24:36;;;;;;;2.97;1.20;;;24.50;99.90;;;;;;5021778;28;20116;-67
2023/09/14 12:27:02;;;;;;;3.58;1.20;;;24.40;99.90;;;;;;5037951;28;20083;-67
2023/09/14 12:29:28;;;;;;;4.47;1.33;;;24.30;99.90;;;;;;5038136;28;20101;-67
2023/09/14 12:31:54;;;;;;;4.85;1.40;;;24.40;99.90;;;;;;5020531;28;20071;-67
2023/09/14 12:34:19;;;;;;;4.30;1.83;;;24.30;99.90;;;;;;5038116;28;20021;-67
2023/09/14 12:36:45;;;;;;;4.78;1.80;;;24.10;99.90;;;;;;5020643;28;20037;-68
2023/09/14 12:39:12;;;;;;;6.25;1.80;;;23.50;99.90;;;;;;5021017;28;20079;-68
2023/09/14 12:41:40;;;;;;;6.95;1.70;;;22.90;99.90;;;;;;5021369;28;20029;-67
2023/09/14 12:44:05;;;;;;;4.45;1.73;;;23.00;99.90;;;;;;5020639;28;20112;-67
2023/09/14 12:46:31;;;;;;;3.42;1.60;;;22.80;99.90;;;;;;5020365;28;20048;-67
2023/09/14 12:49:00;;;;;;;6.50;2.08;;;22.90;99.90;;;;;;5020633;28;20029;-68
2023/09/14 12:51:26;;;;;;;4.97;1.20;;;22.80;99.90;;;;;;5020072;28;20130;-68